Time,TemperatureF,DewpointF,PressureIn,WindDirection,WindDirectionDegrees,WindSpeedMPH,WindSpeedGustMPH,Humidity,HourlyPrecipIn,Conditions,Clouds,dailyrainin,SolarRadiationWatts/m^2,SoftwareType,DateUTC
2013-03-28 01:00:00,29.0,17.0,-100.00,NW,315,2.0,-999.0,60,-99.99,,,-99.99,0.000000,,2013-03-28 05:00:00,
2013-03-28 01:43:00,29.0,17.0,-100.00,NW,315,2.0,-999.0,60,-99.99,,,-99.99,0.000000,,2013-03-28 05:43:00,
2013-03-28 01:52:00,29.0,17.0,-100.00,NW,315,2.0,-999.0,60,-99.99,,,-99.99,0.000000,,2013-03-28 05:52:00,
2013-03-28 02:00:00,29.0,17.0,-100.00,NW,315,2.0,-999.0,60,-99.99,,,-99.99,0.000000,,2013-03-28 06:00:00,
2013-03-28 02:42:00,29.0,17.0,-100.00,NW,315,2.0,-999.0,60,-99.99,,,-99.99,0.000000,,2013-03-28 06:42:00,
2013-03-28 02:52:00,29.0,17.0,-100.00,NW,315,2.0,-999.0,60,-99.99,,,-99.99,0.000000,,2013-03-28 06:52:00,
2013-03-28 06:00:00,27.0,15.0,-100.00,NW,315,3.0,-999.0,61,-99.99,,,-99.99,0.000000,,2013-03-28 10:00:00,
2013-03-28 06:43:00,27.0,15.0,-100.00,NW,315,3.0,-999.0,61,-99.99,,,-99.99,0.000000,,2013-03-28 10:43:00,
2013-03-28 06:53:00,27.0,15.0,-100.00,NW,315,3.0,-999.0,61,-99.99,,,-99.99,0.000000,,2013-03-28 10:53:00,
2013-03-28 08:00:00,24.0,15.0,-100.00,West,270,1.0,-999.0,66,-99.99,,,-99.99,8.120000,,2013-03-28 12:00:00,
2013-03-28 08:42:00,24.0,15.0,-100.00,West,270,1.0,-999.0,66,-99.99,,,-99.99,8.120000,,2013-03-28 12:42:00,
2013-03-28 08:52:00,24.0,15.0,-100.00,West,270,1.0,-999.0,66,-99.99,,,-99.99,8.120000,,2013-03-28 12:52:00,
2013-03-28 09:00:00,27.0,15.0,-100.00,WNW,292,3.0,-999.0,60,-99.99,,,-99.99,118.320000,,2013-03-28 13:00:00,
2013-03-28 09:42:00,27.0,15.0,-100.00,WNW,292,3.0,-999.0,60,-99.99,,,-99.99,118.320000,,2013-03-28 13:42:00,
2013-03-28 09:52:00,27.0,15.0,-100.00,WNW,292,3.0,-999.0,60,-99.99,,,-99.99,118.320000,,2013-03-28 13:52:00,
2013-03-28 10:00:00,33.0,16.0,-100.00,NW,315,3.0,-999.0,50,-99.99,,,-99.99,288.839996,,2013-03-28 14:00:00,
2013-03-28 10:42:00,33.0,16.0,-100.00,NW,315,3.0,-999.0,50,-99.99,,,-99.99,288.839996,,2013-03-28 14:42:00,
2013-03-28 10:52:00,33.0,16.0,-100.00,NW,315,3.0,-999.0,50,-99.99,,,-99.99,288.839996,,2013-03-28 14:52:00,
2013-03-28 11:00:00,40.0,18.0,-100.00,WSW,247,4.0,-999.0,40,-99.99,,,-99.99,455.880005,,2013-03-28 15:00:00,
2013-03-28 11:43:00,40.0,18.0,-100.00,WSW,247,4.0,-999.0,40,-99.99,,,-99.99,455.880005,,2013-03-28 15:43:00,
2013-03-28 11:53:00,40.0,18.0,-100.00,WSW,247,4.0,-999.0,40,-99.99,,,-99.99,455.880005,,2013-03-28 15:53:00,
2013-03-28 13:00:00,46.0,16.0,-100.00,WNW,292,4.0,-999.0,29,-99.99,,,-99.99,698.320007,,2013-03-28 17:00:00,
2013-03-28 13:42:00,46.0,16.0,-100.00,WNW,292,4.0,-999.0,29,-99.99,,,-99.99,698.320007,,2013-03-28 17:42:00,
2013-03-28 13:52:00,46.0,16.0,-100.00,WNW,292,4.0,-999.0,29,-99.99,,,-99.99,698.320007,,2013-03-28 17:52:00,
2013-03-28 14:00:00,47.0,17.0,-100.00,WSW,247,4.0,-999.0,29,-99.99,,,-99.99,745.880005,,2013-03-28 18:00:00,
2013-03-28 14:42:00,47.0,17.0,-100.00,WSW,247,4.0,-999.0,29,-99.99,,,-99.99,745.880005,,2013-03-28 18:42:00,
2013-03-28 14:52:00,47.0,17.0,-100.00,WSW,247,4.0,-999.0,29,-99.99,,,-99.99,745.880005,,2013-03-28 18:52:00,
2013-03-28 15:00:00,49.0,17.0,-100.00,SSE,157,4.0,-999.0,28,-99.99,,,-99.99,737.760010,,2013-03-28 19:00:00,
2013-03-28 15:43:00,49.0,17.0,-100.00,SSE,157,4.0,-999.0,28,-99.99,,,-99.99,737.760010,,2013-03-28 19:43:00,
2013-03-28 15:52:00,49.0,17.0,-100.00,SSE,157,4.0,-999.0,28,-99.99,,,-99.99,737.760010,,2013-03-28 19:52:00,
2013-03-28 17:00:00,46.0,19.0,-100.00,SSE,157,6.0,-999.0,33,-99.99,,,-99.99,566.080017,,2013-03-28 21:00:00,
2013-03-28 17:43:00,46.0,19.0,-100.00,SSE,157,6.0,-999.0,33,-99.99,,,-99.99,566.080017,,2013-03-28 21:43:00,
2013-03-28 17:53:00,46.0,19.0,-100.00,SSE,157,6.0,-999.0,33,-99.99,,,-99.99,566.080017,,2013-03-28 21:53:00,
2013-03-28 18:00:00,45.0,18.0,-100.00,SSE,157,6.0,-999.0,33,-99.99,,,-99.99,400.200012,,2013-03-28 22:00:00,
2013-03-28 18:42:00,45.0,18.0,-100.00,SSE,157,6.0,-999.0,33,-99.99,,,-99.99,400.200012,,2013-03-28 22:42:00,
2013-03-28 18:52:00,45.0,18.0,-100.00,SSE,157,6.0,-999.0,33,-99.99,,,-99.99,400.200012,,2013-03-28 22:52:00,
2013-03-28 19:00:00,44.0,18.0,-100.00,SE,135,4.0,-999.0,35,-99.99,,,-99.99,132.240005,,2013-03-28 23:00:00,
2013-03-28 19:42:00,44.0,18.0,-100.00,SE,135,4.0,-999.0,35,-99.99,,,-99.99,132.240005,,2013-03-28 23:42:00,
2013-03-28 19:53:00,44.0,18.0,-100.00,SE,135,4.0,-999.0,35,-99.99,,,-99.99,132.240005,,2013-03-28 23:53:00,
2013-03-28 21:00:00,35.0,20.0,-100.00,ESE,112,1.0,-999.0,52,-99.99,,,-99.99,2.320000,,2013-03-29 01:00:00,
2013-03-28 21:42:00,35.0,20.0,-100.00,ESE,112,1.0,-999.0,52,-99.99,,,-99.99,2.320000,,2013-03-29 01:42:00,
2013-03-28 21:52:00,35.0,20.0,-100.00,ESE,112,1.0,-999.0,52,-99.99,,,-99.99,2.320000,,2013-03-29 01:52:00,
2013-03-28 22:00:00,31.0,19.0,-100.00,ESE,112,1.0,-999.0,60,-99.99,,,-99.99,0.000000,,2013-03-29 02:00:00,
2013-03-28 22:42:00,31.0,19.0,-100.00,ESE,112,1.0,-999.0,60,-99.99,,,-99.99,0.000000,,2013-03-29 02:42:00,
2013-03-28 22:53:00,31.0,19.0,-100.00,ESE,112,1.0,-999.0,60,-99.99,,,-99.99,0.000000,,2013-03-29 02:53:00,
2013-03-28 23:00:00,28.0,19.0,-100.00,ESE,112,1.0,-999.0,67,-99.99,,,-99.99,0.000000,,2013-03-29 03:00:00,
2013-03-28 23:43:00,28.0,19.0,-100.00,ESE,112,1.0,-999.0,67,-99.99,,,-99.99,0.000000,,2013-03-29 03:43:00,
2013-03-28 23:53:00,28.0,19.0,-100.00,ESE,112,1.0,-999.0,67,-99.99,,,-99.99,0.000000,,2013-03-29 03:53:00,